sensor_id;sensor_type;location;lat;lon;timestamp;temperature;humidity
25871;DHT22;13689;48.590;7.752;2023-03-01T00:01:06;2.70;63.00
25871;DHT22;13689;48.590;7.752;2023-03-01T00:03:32;2.80;62.90
25871;DHT22;13689;48.590;7.752;2023-03-01T00:05:58;2.80;62.90
25871;DHT22;13689;48.590;7.752;2023-03-01T00:08:25;2.70;63.00
25871;DHT22;13689;48.590;7.752;2023-03-01T00:11:07;2.70;63.10
25871;DHT22;13689;48.590;7.752;2023-03-01T00:13:34;2.70;63.20
25871;DHT22;13689;48.590;7.752;2023-03-01T00:16:02;2.70;63.20
25871;DHT22;13689;48.590;7.752;2023-03-01T00:18:28;2.70;63.20
25871;DHT22;13689;48.590;7.752;2023-03-01T00:20:55;2.70;63.20
25871;DHT22;13689;48.590;7.752;2023-03-01T00:23:22;2.70;63.10
25871;DHT22;13689;48.590;7.752;2023-03-01T00:25:48;2.70;63.10
25871;DHT22;13689;48.590;7.752;2023-03-01T00:28:14;2.70;63.20
25871;DHT22;13689;48.590;7.752;2023-03-01T00:30:41;2.60;63.30
25871;DHT22;13689;48.590;7.752;2023-03-01T00:33:06;2.60;63.30
25871;DHT22;13689;48.590;7.752;2023-03-01T00:35:33;2.60;63.40
25871;DHT22;13689;48.590;7.752;2023-03-01T00:37:59;2.60;63.50
25871;DHT22;13689;48.590;7.752;2023-03-01T00:40:30;2.60;63.50
25871;DHT22;13689;48.590;7.752;2023-03-01T00:42:57;2.60;63.40
25871;DHT22;13689;48.590;7.752;2023-03-01T00:45:22;2.60;63.30
25871;DHT22;13689;48.590;7.752;2023-03-01T00:47:49;2.60;63.40
25871;DHT22;13689;48.590;7.752;2023-03-01T00:50:15;2.60;63.90
25871;DHT22;13689;48.590;7.752;2023-03-01T00:52:41;2.50;63.50
25871;DHT22;13689;48.590;7.752;2023-03-01T00:55:07;2.60;63.50
25871;DHT22;13689;48.590;7.752;2023-03-01T00:57:32;2.50;63.40
25871;DHT22;13689;48.590;7.752;2023-03-01T00:59:59;2.50;63.50
25871;DHT22;13689;48.590;7.752;2023-03-01T01:02:25;2.50;63.50
25871;DHT22;13689;48.590;7.752;2023-03-01T01:04:51;2.50;63.60
25871;DHT22;13689;48.590;7.752;2023-03-01T01:07:17;2.50;63.80
25871;DHT22;13689;48.590;7.752;2023-03-01T01:09:43;2.40;63.70
25871;DHT22;13689;48.590;7.752;2023-03-01T01:12:09;2.50;63.90
25871;DHT22;13689;48.590;7.752;2023-03-01T01:14:35;2.50;63.90
25871;DHT22;13689;48.590;7.752;2023-03-01T01:17:01;2.40;63.80
25871;DHT22;13689;48.590;7.752;2023-03-01T01:19:26;2.40;63.80
25871;DHT22;13689;48.590;7.752;2023-03-01T01:21:52;2.40;63.80
25871;DHT22;13689;48.590;7.752;2023-03-01T01:24:18;2.40;63.90
25871;DHT22;13689;48.590;7.752;2023-03-01T01:26:45;2.40;64.10
25871;DHT22;13689;48.590;7.752;2023-03-01T01:29:11;2.30;64.20
25871;DHT22;13689;48.590;7.752;2023-03-01T01:31:38;2.30;64.50
25871;DHT22;13689;48.590;7.752;2023-03-01T01:34:08;2.30;64.60
25871;DHT22;13689;48.590;7.752;2023-03-01T01:36:34;2.30;64.60
25871;DHT22;13689;48.590;7.752;2023-03-01T01:39:00;2.30;64.60
25871;DHT22;13689;48.590;7.752;2023-03-01T01:41:28;2.20;64.60
25871;DHT22;13689;48.590;7.752;2023-03-01T01:49:28;2.20;64.80
25871;DHT22;13689;48.590;7.752;2023-03-01T01:52:08;2.20;64.90
25871;DHT22;13689;48.590;7.752;2023-03-01T01:57:16;2.20;65.70
25871;DHT22;13689;48.590;7.752;2023-03-01T01:59:47;2.10;65.00
25871;DHT22;13689;48.590;7.752;2023-03-01T02:02:14;2.10;65.10
25871;DHT22;13689;48.590;7.752;2023-03-01T02:04:40;2.10;65.10
25871;DHT22;13689;48.590;7.752;2023-03-01T02:07:18;2.10;65.30
25871;DHT22;13689;48.590;7.752;2023-03-01T02:09:48;2.10;65.40
25871;DHT22;13689;48.590;7.752;2023-03-01T02:12:18;2.10;65.40
25871;DHT22;13689;48.590;7.752;2023-03-01T02:14:44;2.10;65.40
25871;DHT22;13689;48.590;7.752;2023-03-01T02:17:11;2.10;65.60
25871;DHT22;13689;48.590;7.752;2023-03-01T02:22:29;2.00;65.80
25871;DHT22;13689;48.590;7.752;2023-03-01T02:25:00;2.00;65.90
25871;DHT22;13689;48.590;7.752;2023-03-01T02:30:16;1.90;66.20
25871;DHT22;13689;48.590;7.752;2023-03-01T02:32:41;1.90;66.30
25871;DHT22;13689;48.590;7.752;2023-03-01T02:35:12;2.00;66.50
25871;DHT22;13689;48.590;7.752;2023-03-01T02:37:40;1.90;66.40
25871;DHT22;13689;48.590;7.752;2023-03-01T02:40:11;1.90;66.40
25871;DHT22;13689;48.590;7.752;2023-03-01T02:42:51;1.90;66.50
25871;DHT22;13689;48.590;7.752;2023-03-01T02:45:18;1.90;66.50
25871;DHT22;13689;48.590;7.752;2023-03-01T02:47:43;1.90;66.70
25871;DHT22;13689;48.590;7.752;2023-03-01T02:53:10;1.80;66.90
25871;DHT22;13689;48.590;7.752;2023-03-01T02:55:38;1.80;67.00
25871;DHT22;13689;48.590;7.752;2023-03-01T02:58:03;1.80;67.00
25871;DHT22;13689;48.590;7.752;2023-03-01T03:00:36;1.80;67.00
25871;DHT22;13689;48.590;7.752;2023-03-01T03:03:06;1.80;67.10
25871;DHT22;13689;48.590;7.752;2023-03-01T03:05:32;1.80;67.30
25871;DHT22;13689;48.590;7.752;2023-03-01T03:08:00;1.80;67.40
25871;DHT22;13689;48.590;7.752;2023-03-01T03:10:32;1.70;67.60
25871;DHT22;13689;48.590;7.752;2023-03-01T03:13:04;1.70;67.70
25871;DHT22;13689;48.590;7.752;2023-03-01T03:15:31;1.80;67.60
25871;DHT22;13689;48.590;7.752;2023-03-01T03:17:58;1.80;67.60
25871;DHT22;13689;48.590;7.752;2023-03-01T03:20:27;1.80;67.60
25871;DHT22;13689;48.590;7.752;2023-03-01T03:22:56;1.80;67.60
25871;DHT22;13689;48.590;7.752;2023-03-01T03:25:23;1.70;67.60
25871;DHT22;13689;48.590;7.752;2023-03-01T03:27:49;1.80;67.70
25871;DHT22;13689;48.590;7.752;2023-03-01T03:30:23;1.70;67.60
25871;DHT22;13689;48.590;7.752;2023-03-01T03:32:49;1.70;67.80
25871;DHT22;13689;48.590;7.752;2023-03-01T03:35:30;1.70;67.80
25871;DHT22;13689;48.590;7.752;2023-03-01T03:37:57;1.70;68.00
25871;DHT22;13689;48.590;7.752;2023-03-01T03:40:36;1.70;67.90
25871;DHT22;13689;48.590;7.752;2023-03-01T03:43:05;1.70;67.90
25871;DHT22;13689;48.590;7.752;2023-03-01T03:45:31;1.70;68.10
25871;DHT22;13689;48.590;7.752;2023-03-01T03:47:59;1.70;68.10
25871;DHT22;13689;48.590;7.752;2023-03-01T03:50:25;1.70;68.10
25871;DHT22;13689;48.590;7.752;2023-03-01T03:52:51;1.60;68.00
25871;DHT22;13689;48.590;7.752;2023-03-01T03:55:18;1.60;68.10
25871;DHT22;13689;48.590;7.752;2023-03-01T03:57:46;1.60;68.10
25871;DHT22;13689;48.590;7.752;2023-03-01T04:00:19;1.60;68.10
25871;DHT22;13689;48.590;7.752;2023-03-01T04:02:46;1.60;68.20
25871;DHT22;13689;48.590;7.752;2023-03-01T04:05:13;1.60;68.30
25871;DHT22;13689;48.590;7.752;2023-03-01T04:07:41;1.60;68.50
25871;DHT22;13689;48.590;7.752;2023-03-01T04:10:10;1.60;68.50
25871;DHT22;13689;48.590;7.752;2023-03-01T04:12:36;1.60;68.50
25871;DHT22;13689;48.590;7.752;2023-03-01T04:15:06;1.60;68.50
25871;DHT22;13689;48.590;7.752;2023-03-01T04:17:42;1.60;68.50
25871;DHT22;13689;48.590;7.752;2023-03-01T04:20:15;1.50;68.60
25871;DHT22;13689;48.590;7.752;2023-03-01T04:22:43;1.50;68.90
25871;DHT22;13689;48.590;7.752;2023-03-01T04:25:09;1.50;69.00
25871;DHT22;13689;48.590;7.752;2023-03-01T04:27:39;1.50;69.00
25871;DHT22;13689;48.590;7.752;2023-03-01T04:30:05;1.50;69.00
25871;DHT22;13689;48.590;7.752;2023-03-01T04:32:31;1.50;68.90
25871;DHT22;13689;48.590;7.752;2023-03-01T04:34:57;1.50;69.00
25871;DHT22;13689;48.590;7.752;2023-03-01T04:37:22;1.40;69.10
25871;DHT22;13689;48.590;7.752;2023-03-01T04:39:49;1.40;69.10
25871;DHT22;13689;48.590;7.752;2023-03-01T04:42:15;1.50;69.20
25871;DHT22;13689;48.590;7.752;2023-03-01T04:44:40;1.40;69.10
25871;DHT22;13689;48.590;7.752;2023-03-01T04:47:06;1.40;69.20
25871;DHT22;13689;48.590;7.752;2023-03-01T04:49:32;1.40;69.40
25871;DHT22;13689;48.590;7.752;2023-03-01T04:51:57;1.40;69.50
25871;DHT22;13689;48.590;7.752;2023-03-01T04:54:31;1.40;69.50
25871;DHT22;13689;48.590;7.752;2023-03-01T04:56:57;1.30;69.40
25871;DHT22;13689;48.590;7.752;2023-03-01T04:59:24;1.30;69.60
25871;DHT22;13689;48.590;7.752;2023-03-01T05:01:54;1.30;69.80
25871;DHT22;13689;48.590;7.752;2023-03-01T05:04:23;1.30;70.00
25871;DHT22;13689;48.590;7.752;2023-03-01T05:06:49;1.30;70.80
25871;DHT22;13689;48.590;7.752;2023-03-01T05:09:15;1.30;70.00
25871;DHT22;13689;48.590;7.752;2023-03-01T05:11:40;1.30;70.10
25871;DHT22;13689;48.590;7.752;2023-03-01T05:14:07;1.20;70.10
25871;DHT22;13689;48.590;7.752;2023-03-01T05:16:33;1.20;70.20
25871;DHT22;13689;48.590;7.752;2023-03-01T05:18:59;1.30;70.30
25871;DHT22;13689;48.590;7.752;2023-03-01T05:21:25;1.30;70.20
25871;DHT22;13689;48.590;7.752;2023-03-01T05:23:51;1.20;70.20
25871;DHT22;13689;48.590;7.752;2023-03-01T05:26:18;1.20;70.30
25871;DHT22;13689;48.590;7.752;2023-03-01T05:28:44;1.20;70.40
25871;DHT22;13689;48.590;7.752;2023-03-01T05:31:10;1.20;70.50
25871;DHT22;13689;48.590;7.752;2023-03-01T05:33:40;1.20;70.50
25871;DHT22;13689;48.590;7.752;2023-03-01T05:36:09;1.20;70.40
25871;DHT22;13689;48.590;7.752;2023-03-01T05:38:35;1.20;70.60
25871;DHT22;13689;48.590;7.752;2023-03-01T05:41:01;1.20;70.60
25871;DHT22;13689;48.590;7.752;2023-03-01T05:43:30;1.20;70.60
25871;DHT22;13689;48.590;7.752;2023-03-01T05:45:57;1.20;70.60
25871;DHT22;13689;48.590;7.752;2023-03-01T05:48:23;1.20;70.60
25871;DHT22;13689;48.590;7.752;2023-03-01T05:50:49;1.10;70.70
25871;DHT22;13689;48.590;7.752;2023-03-01T05:53:17;1.20;70.80
25871;DHT22;13689;48.590;7.752;2023-03-01T05:55:44;1.10;70.80
25871;DHT22;13689;48.590;7.752;2023-03-01T05:58:14;1.20;70.80
25871;DHT22;13689;48.590;7.752;2023-03-01T06:00:40;1.20;70.90
25871;DHT22;13689;48.590;7.752;2023-03-01T06:03:06;1.20;70.80
25871;DHT22;13689;48.590;7.752;2023-03-01T06:05:32;1.10;70.70
25871;DHT22;13689;48.590;7.752;2023-03-01T06:08:01;1.10;70.70
25871;DHT22;13689;48.590;7.752;2023-03-01T06:10:27;1.10;70.80
25871;DHT22;13689;48.590;7.752;2023-03-01T06:12:53;1.00;70.80
25871;DHT22;13689;48.590;7.752;2023-03-01T06:15:19;1.10;71.00
25871;DHT22;13689;48.590;7.752;2023-03-01T06:17:45;1.10;71.20
25871;DHT22;13689;48.590;7.752;2023-03-01T06:20:18;1.00;71.10
25871;DHT22;13689;48.590;7.752;2023-03-01T06:22:51;1.10;71.30
25871;DHT22;13689;48.590;7.752;2023-03-01T06:25:21;1.10;71.20
25871;DHT22;13689;48.590;7.752;2023-03-01T06:27:47;1.10;71.20
25871;DHT22;13689;48.590;7.752;2023-03-01T06:30:16;1.10;71.30
25871;DHT22;13689;48.590;7.752;2023-03-01T06:32:42;1.00;71.20
25871;DHT22;13689;48.590;7.752;2023-03-01T06:35:09;1.00;71.40
25871;DHT22;13689;48.590;7.752;2023-03-01T06:37:36;1.10;71.60
25871;DHT22;13689;48.590;7.752;2023-03-01T06:40:03;1.10;71.50
25871;DHT22;13689;48.590;7.752;2023-03-01T06:42:38;1.10;71.50
25871;DHT22;13689;48.590;7.752;2023-03-01T06:45:05;1.10;71.60
25871;DHT22;13689;48.590;7.752;2023-03-01T06:47:32;1.10;71.60
25871;DHT22;13689;48.590;7.752;2023-03-01T06:49:59;1.10;71.60
25871;DHT22;13689;48.590;7.752;2023-03-01T06:52:25;1.10;71.40
25871;DHT22;13689;48.590;7.752;2023-03-01T06:54:50;1.10;71.60
25871;DHT22;13689;48.590;7.752;2023-03-01T06:57:16;1.10;71.60
25871;DHT22;13689;48.590;7.752;2023-03-01T06:59:42;1.20;71.80
25871;DHT22;13689;48.590;7.752;2023-03-01T07:02:13;1.20;71.80
25871;DHT22;13689;48.590;7.752;2023-03-01T07:04:39;1.30;71.80
25871;DHT22;13689;48.590;7.752;2023-03-01T07:07:05;1.30;71.70
25871;DHT22;13689;48.590;7.752;2023-03-01T07:09:30;1.20;71.40
25871;DHT22;13689;48.590;7.752;2023-03-01T07:11:56;1.30;71.80
25871;DHT22;13689;48.590;7.752;2023-03-01T07:14:22;1.30;71.80
25871;DHT22;13689;48.590;7.752;2023-03-01T07:16:49;1.30;71.90
25871;DHT22;13689;48.590;7.752;2023-03-01T07:19:15;1.40;71.90
25871;DHT22;13689;48.590;7.752;2023-03-01T07:21:41;1.50;71.80
25871;DHT22;13689;48.590;7.752;2023-03-01T07:24:07;1.50;71.60
25871;DHT22;13689;48.590;7.752;2023-03-01T07:26:33;1.50;71.60
25871;DHT22;13689;48.590;7.752;2023-03-01T07:29:00;1.50;71.60
25871;DHT22;13689;48.590;7.752;2023-03-01T07:31:26;1.60;71.50
25871;DHT22;13689;48.590;7.752;2023-03-01T07:33:54;1.60;71.50
25871;DHT22;13689;48.590;7.752;2023-03-01T07:36:19;1.60;71.50
25871;DHT22;13689;48.590;7.752;2023-03-01T07:38:45;1.60;71.60
25871;DHT22;13689;48.590;7.752;2023-03-01T07:41:11;1.70;71.70
25871;DHT22;13689;48.590;7.752;2023-03-01T07:43:36;1.70;71.70
25871;DHT22;13689;48.590;7.752;2023-03-01T07:46:03;1.80;71.50
25871;DHT22;13689;48.590;7.752;2023-03-01T07:48:30;1.70;71.10
25871;DHT22;13689;48.590;7.752;2023-03-01T07:51:00;1.80;71.30
25871;DHT22;13689;48.590;7.752;2023-03-01T07:53:26;1.70;71.30
25871;DHT22;13689;48.590;7.752;2023-03-01T07:56:09;1.80;71.40
25871;DHT22;13689;48.590;7.752;2023-03-01T07:58:42;1.80;71.30
25871;DHT22;13689;48.590;7.752;2023-03-01T08:01:14;1.80;71.40
25871;DHT22;13689;48.590;7.752;2023-03-01T08:03:40;1.90;71.30
25871;DHT22;13689;48.590;7.752;2023-03-01T08:06:08;2.00;71.10
25871;DHT22;13689;48.590;7.752;2023-03-01T08:08:34;2.00;71.80
25871;DHT22;13689;48.590;7.752;2023-03-01T08:11:02;2.00;70.90
25871;DHT22;13689;48.590;7.752;2023-03-01T08:13:28;2.00;71.10
25871;DHT22;13689;48.590;7.752;2023-03-01T08:15:54;2.10;71.00
25871;DHT22;13689;48.590;7.752;2023-03-01T08:18:21;2.20;71.00
25871;DHT22;13689;48.590;7.752;2023-03-01T08:20:47;2.20;70.80
25871;DHT22;13689;48.590;7.752;2023-03-01T08:23:13;2.30;70.80
25871;DHT22;13689;48.590;7.752;2023-03-01T08:25:38;2.50;70.70
25871;DHT22;13689;48.590;7.752;2023-03-01T08:28:05;2.50;70.40
25871;DHT22;13689;48.590;7.752;2023-03-01T08:30:31;2.70;70.40
25871;DHT22;13689;48.590;7.752;2023-03-01T08:32:56;2.70;70.40
25871;DHT22;13689;48.590;7.752;2023-03-01T08:35:22;2.80;70.10
25871;DHT22;13689;48.590;7.752;2023-03-01T08:37:48;2.70;69.80
25871;DHT22;13689;48.590;7.752;2023-03-01T08:40:14;2.80;69.80
25871;DHT22;13689;48.590;7.752;2023-03-01T08:42:41;2.80;69.70
25871;DHT22;13689;48.590;7.752;2023-03-01T08:45:08;2.90;69.70
25871;DHT22;13689;48.590;7.752;2023-03-01T08:47:34;3.20;69.80
25871;DHT22;13689;48.590;7.752;2023-03-01T08:50:00;4.10;69.70
25871;DHT22;13689;48.590;7.752;2023-03-01T08:52:26;5.50;68.30
25871;DHT22;13689;48.590;7.752;2023-03-01T08:54:52;6.40;65.80
25871;DHT22;13689;48.590;7.752;2023-03-01T08:57:18;7.10;65.60
25871;DHT22;13689;48.590;7.752;2023-03-01T08:59:44;7.20;64.50
25871;DHT22;13689;48.590;7.752;2023-03-01T09:02:15;7.60;64.10
25871;DHT22;13689;48.590;7.752;2023-03-01T09:04:42;8.40;63.00
25871;DHT22;13689;48.590;7.752;2023-03-01T09:07:08;8.80;60.10
25871;DHT22;13689;48.590;7.752;2023-03-01T09:09:34;9.40;58.80
25871;DHT22;13689;48.590;7.752;2023-03-01T09:14:35;10.80;56.40
25871;DHT22;13689;48.590;7.752;2023-03-01T09:17:03;11.60;55.50
25871;DHT22;13689;48.590;7.752;2023-03-01T09:19:30;12.40;53.90
25871;DHT22;13689;48.590;7.752;2023-03-01T09:21:55;12.90;52.20
25871;DHT22;13689;48.590;7.752;2023-03-01T09:24:24;13.20;51.60
25871;DHT22;13689;48.590;7.752;2023-03-01T09:26:51;13.50;51.00
25871;DHT22;13689;48.590;7.752;2023-03-01T09:29:17;13.80;50.30
25871;DHT22;13689;48.590;7.752;2023-03-01T09:31:43;14.30;49.90
25871;DHT22;13689;48.590;7.752;2023-03-01T09:34:09;14.40;47.90
25871;DHT22;13689;48.590;7.752;2023-03-01T09:36:35;14.10;47.30
25871;DHT22;13689;48.590;7.752;2023-03-01T09:39:02;14.10;48.00
25871;DHT22;13689;48.590;7.752;2023-03-01T09:41:50;14.00;47.30
25871;DHT22;13689;48.590;7.752;2023-03-01T09:44:38;14.00;47.40
25871;DHT22;13689;48.590;7.752;2023-03-01T09:47:17;14.00;47.10
25871;DHT22;13689;48.590;7.752;2023-03-01T09:49:55;14.20;46.90
25871;DHT22;13689;48.590;7.752;2023-03-01T09:55:16;14.00;44.90
25871;DHT22;13689;48.590;7.752;2023-03-01T09:58:25;14.20;45.40
25871;DHT22;13689;48.590;7.752;2023-03-01T10:00:49;14.80;45.30
25871;DHT22;13689;48.590;7.752;2023-03-01T10:06:04;15.40;43.90
25871;DHT22;13689;48.590;7.752;2023-03-01T10:08:56;15.60;42.10
25871;DHT22;13689;48.590;7.752;2023-03-01T10:11:50;15.70;42.10
25871;DHT22;13689;48.590;7.752;2023-03-01T10:14:38;15.70;40.90
25871;DHT22;13689;48.590;7.752;2023-03-01T10:19:41;15.70;41.10
25871;DHT22;13689;48.590;7.752;2023-03-01T10:22:15;16.30;40.50
25871;DHT22;13689;48.590;7.752;2023-03-01T10:24:41;16.30;39.50
25871;DHT22;13689;48.590;7.752;2023-03-01T10:27:57;16.40;38.90
25871;DHT22;13689;48.590;7.752;2023-03-01T10:30:13;16.50;38.60
25871;DHT22;13689;48.590;7.752;2023-03-01T10:32:42;16.70;38.20
25871;DHT22;13689;48.590;7.752;2023-03-01T10:35:20;16.70;37.30
25871;DHT22;13689;48.590;7.752;2023-03-01T10:38:10;17.00;37.10
25871;DHT22;13689;48.590;7.752;2023-03-01T10:40:49;17.30;37.00
25871;DHT22;13689;48.590;7.752;2023-03-01T10:43:15;17.40;35.80
25871;DHT22;13689;48.590;7.752;2023-03-01T10:45:40;17.50;35.80
25871;DHT22;13689;48.590;7.752;2023-03-01T10:48:22;17.40;35.30
25871;DHT22;13689;48.590;7.752;2023-03-01T10:53:30;13.50;37.40
25871;DHT22;13689;48.590;7.752;2023-03-01T10:58:30;10.50;42.00
25871;DHT22;13689;48.590;7.752;2023-03-01T11:01:02;9.50;43.80
25871;DHT22;13689;48.590;7.752;2023-03-01T11:03:33;8.60;45.50
25871;DHT22;13689;48.590;7.752;2023-03-01T11:08:42;8.00;46.70
25871;DHT22;13689;48.590;7.752;2023-03-01T11:11:24;7.80;48.00
25871;DHT22;13689;48.590;7.752;2023-03-01T11:16:44;7.30;48.60
25871;DHT22;13689;48.590;7.752;2023-03-01T11:24:17;7.20;50.10
25871;DHT22;13689;48.590;7.752;2023-03-01T11:26:51;7.10;49.80
25871;DHT22;13689;48.590;7.752;2023-03-01T11:29:29;7.00;50.20
25871;DHT22;13689;48.590;7.752;2023-03-01T11:32:00;6.90;50.60
25871;DHT22;13689;48.590;7.752;2023-03-01T11:37:40;6.70;51.50
25871;DHT22;13689;48.590;7.752;2023-03-01T11:40:25;6.70;51.70
25871;DHT22;13689;48.590;7.752;2023-03-01T11:45:26;6.70;51.90
25871;DHT22;13689;48.590;7.752;2023-03-01T11:50:45;6.80;52.60
25871;DHT22;13689;48.590;7.752;2023-03-01T11:58:38;6.80;52.80
25871;DHT22;13689;48.590;7.752;2023-03-01T12:20:49;7.00;53.40
25871;DHT22;13689;48.590;7.752;2023-03-01T12:26:30;7.00;53.60
25871;DHT22;13689;48.590;7.752;2023-03-01T12:31:32;7.00;53.70
25871;DHT22;13689;48.590;7.752;2023-03-01T12:34:40;7.10;53.80
25871;DHT22;13689;48.590;7.752;2023-03-01T12:37:49;7.10;53.50
25871;DHT22;13689;48.590;7.752;2023-03-01T12:40:46;7.10;53.60
25871;DHT22;13689;48.590;7.752;2023-03-01T12:46:28;7.00;53.80
25871;DHT22;13689;48.590;7.752;2023-03-01T12:51:33;7.10;53.90
25871;DHT22;13689;48.590;7.752;2023-03-01T12:54:05;7.00;53.90
25871;DHT22;13689;48.590;7.752;2023-03-01T12:56:35;7.00;54.00
25871;DHT22;13689;48.590;7.752;2023-03-01T12:59:21;7.00;54.00
25871;DHT22;13689;48.590;7.752;2023-03-01T13:02:20;7.10;54.00
25871;DHT22;13689;48.590;7.752;2023-03-01T13:13:08;7.10;54.10
25871;DHT22;13689;48.590;7.752;2023-03-01T13:15:37;7.10;54.20
25871;DHT22;13689;48.590;7.752;2023-03-01T13:20:48;7.20;54.20
25871;DHT22;13689;48.590;7.752;2023-03-01T13:28:50;7.20;54.10
25871;DHT22;13689;48.590;7.752;2023-03-01T13:33:45;7.20;54.20
25871;DHT22;13689;48.590;7.752;2023-03-01T13:39:04;7.30;54.20
25871;DHT22;13689;48.590;7.752;2023-03-01T13:49:58;7.40;54.00
25871;DHT22;13689;48.590;7.752;2023-03-01T13:52:43;7.40;54.00
25871;DHT22;13689;48.590;7.752;2023-03-01T13:58:02;7.50;53.90
25871;DHT22;13689;48.590;7.752;2023-03-01T14:00:36;7.40;53.90
25871;DHT22;13689;48.590;7.752;2023-03-01T14:03:14;7.40;54.00
25871;DHT22;13689;48.590;7.752;2023-03-01T14:05:43;7.40;54.00
25871;DHT22;13689;48.590;7.752;2023-03-01T14:08:24;7.40;54.00
25871;DHT22;13689;48.590;7.752;2023-03-01T14:16:48;7.40;53.80
25871;DHT22;13689;48.590;7.752;2023-03-01T14:21:41;7.50;53.80
25871;DHT22;13689;48.590;7.752;2023-03-01T14:26:42;7.50;53.70
25871;DHT22;13689;48.590;7.752;2023-03-01T14:32:41;7.50;53.80
25871;DHT22;13689;48.590;7.752;2023-03-01T14:35:00;7.50;53.80
25871;DHT22;13689;48.590;7.752;2023-03-01T14:37:29;7.50;53.80
25871;DHT22;13689;48.590;7.752;2023-03-01T14:39:57;7.50;53.80
25871;DHT22;13689;48.590;7.752;2023-03-01T14:42:23;7.50;53.80
25871;DHT22;13689;48.590;7.752;2023-03-01T14:44:52;7.50;54.40
25871;DHT22;13689;48.590;7.752;2023-03-01T14:47:34;7.50;53.70
25871;DHT22;13689;48.590;7.752;2023-03-01T14:50:05;7.50;53.80
25871;DHT22;13689;48.590;7.752;2023-03-01T14:52:37;7.40;53.80
25871;DHT22;13689;48.590;7.752;2023-03-01T14:55:07;7.50;53.90
25871;DHT22;13689;48.590;7.752;2023-03-01T14:57:43;7.40;54.00
25871;DHT22;13689;48.590;7.752;2023-03-01T15:00:16;7.50;54.00
25871;DHT22;13689;48.590;7.752;2023-03-01T15:02:43;7.40;54.00
25871;DHT22;13689;48.590;7.752;2023-03-01T15:05:09;7.40;54.00
25871;DHT22;13689;48.590;7.752;2023-03-01T15:07:40;7.50;54.00
25871;DHT22;13689;48.590;7.752;2023-03-01T15:10:23;7.50;54.00
25871;DHT22;13689;48.590;7.752;2023-03-01T15:12:49;7.40;53.90
25871;DHT22;13689;48.590;7.752;2023-03-01T15:15:33;7.40;54.00
25871;DHT22;13689;48.590;7.752;2023-03-01T15:18:03;7.40;54.00
25871;DHT22;13689;48.590;7.752;2023-03-01T15:20:30;7.50;54.70
25871;DHT22;13689;48.590;7.752;2023-03-01T15:23:01;7.50;54.00
25871;DHT22;13689;48.590;7.752;2023-03-01T15:25:28;7.50;54.00
25871;DHT22;13689;48.590;7.752;2023-03-01T15:27:56;7.50;54.00
25871;DHT22;13689;48.590;7.752;2023-03-01T15:33:25;7.50;54.00
25871;DHT22;13689;48.590;7.752;2023-03-01T15:35:55;7.50;54.00
25871;DHT22;13689;48.590;7.752;2023-03-01T15:40:54;7.50;54.10
25871;DHT22;13689;48.590;7.752;2023-03-01T15:46:15;7.50;54.20
25871;DHT22;13689;48.590;7.752;2023-03-01T15:48:45;7.50;54.10
25871;DHT22;13689;48.590;7.752;2023-03-01T15:51:12;7.50;54.10
25871;DHT22;13689;48.590;7.752;2023-03-01T15:53:39;7.50;54.20
25871;DHT22;13689;48.590;7.752;2023-03-01T15:56:05;7.50;54.30
25871;DHT22;13689;48.590;7.752;2023-03-01T15:58:32;7.50;54.30
25871;DHT22;13689;48.590;7.752;2023-03-01T16:00:58;7.50;54.30
25871;DHT22;13689;48.590;7.752;2023-03-01T16:03:24;7.50;54.30
25871;DHT22;13689;48.590;7.752;2023-03-01T16:05:51;7.40;54.30
25871;DHT22;13689;48.590;7.752;2023-03-01T16:08:17;7.50;54.40
25871;DHT22;13689;48.590;7.752;2023-03-01T16:10:44;7.40;54.40
25871;DHT22;13689;48.590;7.752;2023-03-01T16:13:13;7.40;54.40
25871;DHT22;13689;48.590;7.752;2023-03-01T16:15:39;7.40;54.50
25871;DHT22;13689;48.590;7.752;2023-03-01T16:18:06;7.40;54.50
25871;DHT22;13689;48.590;7.752;2023-03-01T16:20:33;7.40;54.60
25871;DHT22;13689;48.590;7.752;2023-03-01T16:23:00;7.40;54.70
25871;DHT22;13689;48.590;7.752;2023-03-01T16:25:27;7.30;54.70
25871;DHT22;13689;48.590;7.752;2023-03-01T16:27:52;7.30;54.70
25871;DHT22;13689;48.590;7.752;2023-03-01T16:30:20;7.30;54.80
25871;DHT22;13689;48.590;7.752;2023-03-01T16:32:47;7.30;54.80
25871;DHT22;13689;48.590;7.752;2023-03-01T16:35:16;7.20;54.80
25871;DHT22;13689;48.590;7.752;2023-03-01T16:37:42;7.20;54.90
25871;DHT22;13689;48.590;7.752;2023-03-01T16:40:28;7.20;54.90
25871;DHT22;13689;48.590;7.752;2023-03-01T16:42:56;7.20;55.00
25871;DHT22;13689;48.590;7.752;2023-03-01T16:45:28;7.20;55.00
25871;DHT22;13689;48.590;7.752;2023-03-01T16:47:57;7.10;55.00
25871;DHT22;13689;48.590;7.752;2023-03-01T16:50:24;7.20;55.10
25871;DHT22;13689;48.590;7.752;2023-03-01T16:52:51;7.20;55.10
25871;DHT22;13689;48.590;7.752;2023-03-01T16:55:16;7.10;55.10
25871;DHT22;13689;48.590;7.752;2023-03-01T16:57:42;7.10;55.20
25871;DHT22;13689;48.590;7.752;2023-03-01T17:00:10;7.10;55.20
25871;DHT22;13689;48.590;7.752;2023-03-01T17:02:36;7.10;55.20
25871;DHT22;13689;48.590;7.752;2023-03-01T17:05:03;7.10;55.20
25871;DHT22;13689;48.590;7.752;2023-03-01T17:07:30;7.00;55.30
25871;DHT22;13689;48.590;7.752;2023-03-01T17:10:02;7.00;55.90
25871;DHT22;13689;48.590;7.752;2023-03-01T17:12:28;7.00;55.40
25871;DHT22;13689;48.590;7.752;2023-03-01T17:14:56;7.00;55.50
25871;DHT22;13689;48.590;7.752;2023-03-01T17:17:22;7.00;55.50
25871;DHT22;13689;48.590;7.752;2023-03-01T17:19:48;7.00;55.50
25871;DHT22;13689;48.590;7.752;2023-03-01T17:22:13;7.00;55.60
25871;DHT22;13689;48.590;7.752;2023-03-01T17:24:39;7.00;55.60
25871;DHT22;13689;48.590;7.752;2023-03-01T17:27:06;7.00;55.60
25871;DHT22;13689;48.590;7.752;2023-03-01T17:29:32;6.90;55.70
25871;DHT22;13689;48.590;7.752;2023-03-01T17:31:58;6.90;56.30
25871;DHT22;13689;48.590;7.752;2023-03-01T17:34:24;6.90;55.70
25871;DHT22;13689;48.590;7.752;2023-03-01T17:36:50;6.90;55.70
25871;DHT22;13689;48.590;7.752;2023-03-01T17:39:24;6.90;55.80
25871;DHT22;13689;48.590;7.752;2023-03-01T17:41:52;6.90;55.80
25871;DHT22;13689;48.590;7.752;2023-03-01T17:44:18;6.90;56.40
25871;DHT22;13689;48.590;7.752;2023-03-01T17:46:44;6.90;55.80
25871;DHT22;13689;48.590;7.752;2023-03-01T17:49:10;6.90;55.80
25871;DHT22;13689;48.590;7.752;2023-03-01T17:51:35;6.90;55.80
25871;DHT22;13689;48.590;7.752;2023-03-01T17:54:02;6.80;55.80
25871;DHT22;13689;48.590;7.752;2023-03-01T17:56:28;6.80;55.80
25871;DHT22;13689;48.590;7.752;2023-03-01T17:58:54;6.80;55.80
25871;DHT22;13689;48.590;7.752;2023-03-01T18:01:22;6.80;55.80
25871;DHT22;13689;48.590;7.752;2023-03-01T18:03:50;6.80;55.80
25871;DHT22;13689;48.590;7.752;2023-03-01T18:06:21;6.80;55.90
25871;DHT22;13689;48.590;7.752;2023-03-01T18:08:47;6.80;55.90
25871;DHT22;13689;48.590;7.752;2023-03-01T18:11:17;6.80;55.90
25871;DHT22;13689;48.590;7.752;2023-03-01T18:13:43;6.80;56.00
25871;DHT22;13689;48.590;7.752;2023-03-01T18:16:12;6.80;56.00
25871;DHT22;13689;48.590;7.752;2023-03-01T18:18:39;6.70;56.00
25871;DHT22;13689;48.590;7.752;2023-03-01T18:21:05;6.70;56.10